Time;durP1;ratioP1;P1;durP2;ratioP2;P2;SDS_P1;SDS_P2;PMS_P1;PMS_P2;Temp;Humidity;BMP_temperature;BMP_pressure;BME280_temperature;BME280_humidity;BME280_pressure;Samples;Min_cycle;Max_cycle;Signal;HPM_P1;HPM_P2
2022/03/08 00:00:33;;;;;;;5.40;4.07;;;;;;;17.28;46.50;96940.34;10272608;28;20321;-21
2022/03/08 00:05:34;;;;;;;4.90;3.78;;;;;;;17.26;46.58;96944.56;10277513;28;20034;-21
2022/03/08 00:10:35;;;;;;;5.22;3.45;;;;;;;17.30;45.76;96938.66;10286085;28;20499;-22
2022/03/08 00:15:36;;;;;;;5.93;3.20;;;;;;;17.29;46.17;96934.44;10284385;28;20039;-22
2022/03/08 00:20:36;;;;;;;6.30;3.40;;;;;;;17.33;47.15;96931.13;10282406;28;20298;-22
2022/03/08 00:25:37;;;;;;;7.95;3.60;;;;;;;17.33;47.70;96926.88;10284640;28;20039;-22
2022/03/08 00:30:38;;;;;;;4.82;3.65;;;;;;;17.24;46.97;96910.81;10281297;28;20085;-22
2022/03/08 00:35:40;;;;;;;4.13;3.20;;;;;;;17.29;46.42;96910.00;10273804;28;20039;-22
2022/03/08 00:40:41;;;;;;;4.13;2.80;;;;;;;17.27;47.07;96906.63;10289393;28;20547;-22
2022/03/08 00:45:43;;;;;;;4.13;3.28;;;;;;;17.24;45.90;96901.53;10271354;28;20034;-21
2022/03/08 00:50:44;;;;;;;5.50;3.67;;;;;;;17.27;47.64;96906.63;10257940;28;20039;-21
2022/03/08 00:55:46;;;;;;;5.63;3.20;;;;;;;17.26;47.35;96884.66;10262966;28;20488;-22
2022/03/08 01:00:47;;;;;;;4.60;3.20;;;;;;;17.25;46.70;96882.97;10277485;28;20031;-21
2022/03/08 01:05:48;;;;;;;6.43;3.35;;;;;;;17.24;47.27;96880.44;10277964;28;20869;-22
2022/03/08 01:10:48;;;;;;;5.80;3.67;;;;;;;17.23;47.50;96869.47;10281020;28;20046;-28
2022/03/08 01:15:48;;;;;;;4.40;3.58;;;;;;;17.24;46.69;96865.28;10279000;28;20488;-21
2022/03/08 01:20:49;;;;;;;3.93;3.13;;;;;;;17.25;47.03;96872.03;10269722;28;20039;-21
2022/03/08 01:25:50;;;;;;;5.45;3.17;;;;;;;17.25;47.20;96862.72;10281171;28;20301;-22
2022/03/08 01:30:50;;;;;;;6.30;3.63;;;;;;;17.30;48.53;96861.09;10277447;28;20072;-22
2022/03/08 01:35:50;;;;;;;4.68;3.17;;;;;;;17.28;47.23;96856.84;10274922;28;20285;-23
2022/03/08 01:40:51;;;;;;;3.83;3.13;;;;;;;17.25;47.54;96846.72;10287294;28;20491;-22
2022/03/08 01:45:52;;;;;;;3.75;3.25;;;;;;;17.25;46.56;96851.78;10284875;28;20321;-21
2022/03/08 01:50:53;;;;;;;5.32;3.65;;;;;;;17.22;47.97;96841.63;10278519;28;20030;-22
2022/03/08 01:55:53;;;;;;;4.00;3.03;;;;;;;17.22;46.51;96827.28;10276893;28;20034;-22
2022/03/08 02:00:54;;;;;;;3.47;2.85;;;;;;;17.22;46.67;96826.44;10281723;28;20034;-21
2022/03/08 02:05:54;;;;;;;3.60;2.77;;;;;;;17.22;47.60;96821.38;10281519;28;20087;-22
2022/03/08 02:10:54;;;;;;;7.27;3.30;;;;;;;17.23;46.96;96818.03;10276143;28;20304;-21
2022/03/08 02:15:55;;;;;;;5.20;3.65;;;;;;;17.23;46.49;96818.88;10281240;28;20032;-22
2022/03/08 02:20:58;;;;;;;3.75;2.85;;;;;;;17.23;46.69;96813.81;10278870;28;20073;-21
2022/03/08 02:26:00;;;;;;;4.32;3.10;;;;;;;17.24;47.29;96814.66;10281481;28;20431;-22
2022/03/08 02:31:00;;;;;;;3.38;3.08;;;;;;;17.21;47.88;96812.09;10277566;28;20035;-23
2022/03/08 02:36:01;;;;;;;5.15;2.95;;;;;;;17.24;47.22;96810.44;10282400;28;20035;-22
2022/03/08 02:41:01;;;;;;;4.17;2.97;;;;;;;17.26;48.55;96815.50;10284328;28;20045;-22
2022/03/08 02:46:02;;;;;;;3.95;3.20;;;;;;;17.26;48.42;96829.00;10282792;28;20295;-21
2022/03/08 02:51:03;;;;;;;4.85;3.20;;;;;;;17.20;47.45;96818.84;10279362;28;20034;-22
2022/03/08 02:56:04;;;;;;;5.88;3.40;;;;;;;17.20;47.00;96812.94;10282843;28;20026;-22
2022/03/08 03:01:04;;;;;;;3.42;2.63;;;;;;;17.20;47.19;96812.94;10274148;28;20026;-21
2022/03/08 03:06:04;;;;;;;3.40;3.10;;;;;;;17.21;46.68;96810.44;10276177;28;20537;-22
2022/03/08 03:11:05;;;;;;;2.97;2.73;;;;;;;17.21;46.47;96819.69;10279236;28;20351;-22
2022/03/08 03:16:05;;;;;;;5.20;2.87;;;;;;;17.22;46.56;96811.25;10255172;28;20022;-22
2022/03/08 03:21:06;;;;;;;4.38;3.20;;;;;;;17.24;46.86;96824.78;10281498;28;20285;-22
2022/03/08 03:26:06;;;;;;;4.00;2.90;;;;;;;17.23;46.29;96833.22;10280706;28;20027;-22
2022/03/08 03:31:06;;;;;;;3.23;2.70;;;;;;;17.10;46.52;96801.06;10280906;28;20074;-21
2022/03/08 03:36:07;;;;;;;3.50;3.03;;;;;;;17.24;46.12;96817.19;10274457;28;20599;-22
2022/03/08 03:41:07;;;;;;;3.58;3.00;;;;;;;17.17;45.98;96808.69;10290823;28;20031;-22
2022/03/08 03:46:08;;;;;;;5.13;2.80;;;;;;;17.23;47.64;96828.16;10285773;28;20044;-21
2022/03/08 03:51:09;;;;;;;3.92;3.10;;;;;;;17.22;48.55;96811.25;10280909;28;20344;-22
2022/03/08 03:56:10;;;;;;;3.35;2.83;;;;;;;17.23;47.73;96818.88;10283723;28;20030;-22
2022/03/08 04:01:10;;;;;;;6.43;2.95;;;;;;;17.21;47.98;96815.50;10277191;28;20117;-23
2022/03/08 04:06:10;;;;;;;3.13;2.57;;;;;;;17.12;46.89;96800.25;10284052;28;20034;-23
2022/03/08 04:11:11;;;;;;;3.35;2.70;;;;;;;17.17;47.23;96818.00;10280980;28;20775;-21
2022/03/08 04:16:11;;;;;;;3.40;2.90;;;;;;;17.18;47.23;96809.56;10280612;28;20019;-22
2022/03/08 04:21:12;;;;;;;4.60;2.80;;;;;;;17.21;46.80;96814.63;10291425;28;20045;-22
2022/03/08 04:26:12;;;;;;;3.45;3.15;;;;;;;17.20;46.77;96820.53;10289052;28;20534;-22
2022/03/08 04:31:13;;;;;;;3.35;3.03;;;;;;;17.17;48.14;96818.00;10279704;28;20035;-22
2022/03/08 04:36:13;;;;;;;5.97;3.13;;;;;;;17.15;47.81;96817.13;10276185;28;20035;-22
2022/03/08 04:41:14;;;;;;;3.00;2.53;;;;;;;17.20;47.22;96818.84;10284596;28;20294;-22
2022/03/08 04:46:14;;;;;;;3.85;2.78;;;;;;;17.21;46.53;96812.09;10284403;28;20114;-23
2022/03/08 04:51:14;;;;;;;3.30;3.00;;;;;;;17.22;45.90;96814.66;10278234;28;20402;-22
2022/03/08 04:56:16;;;;;;;3.20;2.67;;;;;;;17.24;47.54;96812.13;10278270;28;20082;-22
2022/03/08 05:01:16;;;;;;;5.00;3.22;;;;;;;17.24;48.61;96814.66;10275613;28;20110;-21
2022/03/08 05:06:18;;;;;;;3.10;2.80;;;;;;;17.26;46.65;96810.47;10266911;28;20042;-23
2022/03/08 05:11:18;;;;;;;6.32;2.58;;;;;;;17.25;47.48;96816.34;10258077;28;20053;-21
2022/03/08 05:16:19;;;;;;;2.93;2.60;;;;;;;17.30;46.77;96815.53;10272218;28;20063;-21
2022/03/08 05:21:19;;;;;;;6.67;3.07;;;;;;;17.29;46.02;96807.94;10284580;28;20582;-21
2022/03/08 05:26:19;;;;;;;5.23;2.83;;;;;;;17.32;46.08;96796.16;10283040;28;20381;-22
2022/03/08 05:31:20;;;;;;;6.35;3.83;;;;;;;17.30;46.49;96809.63;10279969;28;20655;-21
2022/03/08 05:36:21;;;;;;;5.95;3.90;;;;;;;17.29;46.31;96801.19;10276515;28;20038;-22
2022/03/08 05:41:21;;;;;;;5.97;4.53;;;;;;;17.30;45.34;96812.16;10273024;28;20042;-21
2022/03/08 05:46:21;;;;;;;4.95;3.30;;;;;;;17.28;46.03;96801.19;10276187;28;20053;-22
2022/03/08 05:51:22;;;;;;;4.80;4.30;;;;;;;17.32;45.27;96797.84;10280400;28;20082;-21
2022/03/08 05:56:22;;;;;;;5.50;4.73;;;;;;;17.23;45.31;96777.56;10274951;28;20034;-21
2022/03/08 06:01:22;;;;;;;12.93;6.70;;;;;;;17.31;44.74;96793.63;10278273;28;20093;-21
2022/03/08 06:06:23;;;;;;;7.03;5.60;;;;;;;17.21;46.17;96799.44;10269324;28;20045;-22
2022/03/08 06:11:24;;;;;;;9.02;4.85;;;;;;;17.29;45.87;96797.81;10272558;28;20294;-22
2022/03/08 06:16:24;;;;;;;3.93;3.07;;;;;;;17.33;45.52;96786.88;10268781;28;20054;-21
2022/03/08 06:21:24;;;;;;;5.47;3.57;;;;;;;17.34;45.11;96794.47;10271846;28;20039;-21
2022/03/08 06:26:26;;;;;;;6.93;4.57;;;;;;;17.30;46.43;96784.31;10280342;28;20034;-21
2022/03/08 06:31:26;;;;;;;15.07;10.43;;;;;;;16.80;39.78;96786.53;10283274;28;20035;-21
2022/03/08 06:36:26;;;;;;;13.93;5.67;;;;;;;17.09;43.74;96795.16;10271402;28;20039;-21
2022/03/08 06:41:28;;;;;;;6.73;5.33;;;;;;;17.20;44.35;96797.75;10281896;28;20026;-21
2022/03/08 06:46:28;;;;;;;7.40;4.30;;;;;;;17.19;45.77;96809.59;10276947;28;20738;-22
2022/03/08 06:51:29;;;;;;;10.03;4.40;;;;;;;17.19;45.77;96812.09;10284027;28;20031;-21
2022/03/08 06:56:29;;;;;;;7.90;3.85;;;;;;;17.18;45.92;96814.63;10274386;28;20674;-22
2022/03/08 07:01:30;;;;;;;9.60;4.10;;;;;;;17.17;45.82;96815.47;10281314;28;20588;-21
2022/03/08 07:06:30;;;;;;;10.27;4.30;;;;;;;17.17;46.46;96823.88;10277641;28;20125;-21
2022/03/08 07:11:31;;;;;;;9.43;4.50;;;;;;;17.12;45.96;96830.59;10275364;28;20027;-22
2022/03/08 07:16:32;;;;;;;8.95;4.15;;;;;;;17.13;47.78;96833.97;10276628;28;20035;-22
2022/03/08 07:21:32;;;;;;;6.80;4.35;;;;;;;17.09;47.18;96829.75;10279162;28;20542;-21
2022/03/08 07:26:33;;;;;;;6.17;4.23;;;;;;;17.15;46.27;96844.97;10280047;28;20062;-21
2022/03/08 07:31:33;;;;;;;7.00;3.97;;;;;;;17.14;45.99;96845.81;10282250;28;20979;-22
2022/03/08 07:36:34;;;;;;;6.93;3.20;;;;;;;17.13;46.37;96849.13;10275480;28;20418;-21
2022/03/08 07:41:35;;;;;;;7.75;3.83;;;;;;;17.15;46.01;96845.78;10275341;28;20291;-21
2022/03/08 07:46:35;;;;;;;5.95;3.20;;;;;;;17.13;45.94;96839.03;10278236;28;20032;-21
2022/03/08 07:51:36;;;;;;;5.78;3.15;;;;;;;17.16;45.89;96851.72;10276868;28;20062;-22
2022/03/08 07:56:36;;;;;;;5.03;3.63;;;;;;;17.13;45.87;96839.88;10274704;28;20439;-21
2022/03/08 08:01:37;;;;;;;4.27;3.40;;;;;;;17.13;46.55;96851.69;10271559;28;20297;-22
2022/03/08 08:06:37;;;;;;;5.03;3.20;;;;;;;17.12;46.33;96847.44;10277788;28;20310;-21
2022/03/08 08:11:37;;;;;;;6.68;3.67;;;;;;;17.11;46.63;96850.81;10278198;28;20293;-21
2022/03/08 08:16:38;;;;;;;4.50;3.27;;;;;;;17.11;46.68;96843.22;10268029;28;20031;-20
2022/03/08 08:21:38;;;;;;;4.17;3.00;;;;;;;17.10;47.95;96849.13;10278334;28;20294;-21
2022/03/08 08:26:39;;;;;;;5.88;3.30;;;;;;;17.06;47.75;96847.44;10286062;28;20928;-21
2022/03/08 08:31:39;;;;;;;4.95;3.58;;;;;;;17.06;47.79;96849.97;10288912;28;20046;-21
2022/03/08 08:36:40;;;;;;;5.10;3.47;;;;;;;17.11;47.57;96854.22;10279704;28;20043;-21
2022/03/08 08:41:42;;;;;;;4.07;3.50;;;;;;;17.12;46.42;96850.84;10287538;28;20031;-21
2022/03/08 08:46:42;;;;;;;5.25;3.20;;;;;;;17.11;46.67;96851.69;10276673;28;20548;-21
2022/03/08 08:51:43;;;;;;;3.40;3.10;;;;;;;17.11;47.27;96854.22;10281297;28;20027;-21
2022/03/08 08:56:43;;;;;;;4.90;3.27;;;;;;;17.12;46.80;96849.97;10282685;28;20026;-21
2022/03/08 09:01:44;;;;;;;4.65;3.10;;;;;;;17.12;46.67;96842.41;10276979;28;20371;-22
2022/03/08 09:06:44;;;;;;;3.33;2.90;;;;;;;17.11;47.10;96835.66;10281223;28;20415;-21
2022/03/08 09:11:45;;;;;;;2.63;2.37;;;;;;;17.11;46.03;96828.06;10285655;28;20366;-22
2022/03/08 09:16:45;;;;;;;2.85;2.63;;;;;;;17.12;46.29;96839.88;10288009;28;20031;-20
2022/03/08 09:21:46;;;;;;;4.40;3.30;;;;;;;17.11;46.94;96833.97;10289684;28;20027;-21
2022/03/08 09:26:46;;;;;;;3.53;3.10;;;;;;;17.11;46.45;96823.00;10284370;28;20660;-19
2022/03/08 09:31:47;;;;;;;5.07;3.50;;;;;;;17.10;48.11;96814.56;10283511;28;20303;-20
2022/03/08 09:36:47;;;;;;;3.95;3.22;;;;;;;17.09;48.55;96814.56;10278012;28;20027;-20
2022/03/08 09:41:51;;;;;;;4.50;2.60;;;;;;;17.10;47.44;96806.13;10280738;28;20548;-20
2022/03/08 09:46:52;;;;;;;4.15;2.97;;;;;;;17.11;47.51;96797.69;10282367;28;20289;-21
2022/03/08 09:51:53;;;;;;;3.33;3.00;;;;;;;17.12;46.69;96784.22;10282669;28;20564;-20
2022/03/08 09:56:53;;;;;;;3.58;3.10;;;;;;;17.12;46.45;96769.03;10282139;28;20035;-21
2022/03/08 10:01:54;;;;;;;3.03;2.50;;;;;;;17.13;47.10;96770.72;10277538;28;20034;-21
2022/03/08 10:06:56;;;;;;;3.77;2.90;;;;;;;17.12;46.94;96769.91;10278710;28;20324;-21
2022/03/08 10:11:56;;;;;;;3.65;2.90;;;;;;;17.13;46.46;96760.59;10282413;28;20039;-22
2022/03/08 10:16:56;;;;;;;3.70;2.90;;;;;;;17.12;47.03;96763.97;10283469;28;20626;-22
2022/03/08 10:21:57;;;;;;;3.28;2.78;;;;;;;17.11;46.22;96774.94;10284259;28;20282;-21
2022/03/08 10:27:02;;;;;;;3.58;2.70;;;;;;;17.11;47.46;96780.00;10283762;28;20035;-21
2022/03/08 10:32:16;;;;;;;2.63;2.42;;;;;;;17.05;46.48;96768.16;10290296;28;20040;-21
2022/03/08 10:37:20;;;;;;;2.97;2.75;;;;;;;17.12;47.19;96779.16;10278469;28;20164;-22
2022/03/08 10:42:25;;;;;;;3.90;3.10;;;;;;;17.09;48.58;96785.03;10282969;28;20514;-21
2022/03/08 10:47:25;;;;;;;3.60;2.72;;;;;;;17.10;48.58;96801.06;10274516;28;20463;-21
2022/03/08 10:52:28;;;;;;;3.53;3.23;;;;;;;17.11;48.10;96808.69;10277197;28;20081;-21
2022/03/08 10:57:35;;;;;;;4.60;2.92;;;;;;;17.11;47.11;96813.75;10274554;28;20290;-22
2022/03/08 11:02:46;;;;;;;3.08;2.78;;;;;;;17.11;47.32;96812.88;10262063;28;20070;-21
2022/03/08 11:07:47;;;;;;;3.75;2.30;;;;;;;17.11;47.64;96817.94;10276995;28;20051;-21
2022/03/08 11:12:48;;;;;;;2.80;2.50;;;;;;;17.07;46.56;96816.25;10274973;28;20047;-21
2022/03/08 11:17:50;;;;;;;3.30;3.00;;;;;;;17.12;47.25;96817.09;10282613;28;20039;-21
2022/03/08 11:22:53;;;;;;;18.25;4.75;;;;;;;17.21;46.32;96814.63;10283765;28;20805;-21
2022/03/08 11:27:54;;;;;;;7.85;3.13;;;;;;;17.25;45.75;96811.28;10276617;28;20084;-21
2022/03/08 11:33:02;;;;;;;3.85;3.00;;;;;;;17.31;45.69;96812.16;10269634;28;20048;-21
2022/03/08 11:38:04;;;;;;;5.72;4.38;;;;;;;17.21;44.29;96799.44;10280347;28;20038;-22
2022/03/08 11:43:07;;;;;;;3.75;2.65;;;;;;;17.31;45.38;96803.75;10272499;28;20053;-21
2022/03/08 11:48:09;;;;;;;4.45;3.50;;;;;;;17.32;45.80;96790.25;10272660;28;20442;-22
2022/03/08 11:53:13;;;;;;;8.65;4.45;;;;;;;17.28;46.87;96807.09;10275120;28;20035;-21
2022/03/08 11:58:19;;;;;;;7.43;4.68;;;;;;;17.28;46.94;96796.13;10279083;28;20039;-21
2022/03/08 12:03:22;;;;;;;8.20;3.30;;;;;;;17.32;45.68;96797.84;10277599;28;20118;-21
2022/03/08 12:08:28;;;;;;;4.25;3.42;;;;;;;17.33;46.22;96790.25;10277254;28;20341;-21
2022/03/08 12:13:31;;;;;;;5.40;3.10;;;;;;;17.37;45.61;96786.94;10282342;28;20034;-20
2022/03/08 12:18:41;;;;;;;3.28;2.95;;;;;;;17.38;46.04;96777.66;10270677;28;20066;-22
2022/03/08 12:23:56;;;;;;;5.32;3.03;;;;;;;17.40;45.56;96776.00;10287308;28;20039;-21
2022/03/08 12:29:02;;;;;;;7.10;3.30;;;;;;;17.40;46.23;96766.69;10285879;28;20517;-21
2022/03/08 12:34:06;;;;;;;5.07;3.53;;;;;;;17.42;45.63;96767.53;10279060;28;20109;-21
2022/03/08 12:39:07;;;;;;;5.25;2.90;;;;;;;17.39;45.71;96754.03;10286614;28;20039;-21
2022/03/08 12:44:07;;;;;;;6.53;3.93;;;;;;;17.37;45.85;96748.97;10291576;28;20031;-21
2022/03/08 12:49:08;;;;;;;6.70;3.40;;;;;;;17.30;45.93;96746.34;10273185;28;20029;-21
2022/03/08 12:54:09;;;;;;;7.45;4.18;;;;;;;17.27;46.34;96748.88;10282771;28;20049;-21
2022/03/08 12:59:11;;;;;;;8.50;4.65;;;;;;;17.26;46.09;96745.50;10277424;28;20589;-21
2022/03/08 13:04:23;;;;;;;7.13;4.53;;;;;;;17.28;47.74;96746.38;10273774;28;20035;-22
2022/03/08 13:09:23;;;;;;;6.78;4.50;;;;;;;17.29;47.10;96749.72;10270589;28;20043;-22
2022/03/08 13:14:24;;;;;;;8.70;5.33;;;;;;;17.28;46.54;96745.50;10288365;28;20406;-22
2022/03/08 13:19:25;;;;;;;5.72;4.55;;;;;;;17.25;46.68;96745.50;10281315;28;20049;-21
2022/03/08 13:24:27;;;;;;;6.23;4.60;;;;;;;17.22;46.51;96731.16;10281572;28;20130;-21
2022/03/08 13:29:27;;;;;;;4.03;3.63;;;;;;;17.22;46.45;96735.34;10275145;28;20297;-22
2022/03/08 13:34:29;;;;;;;4.80;4.10;;;;;;;17.23;46.55;96727.78;10277399;28;20033;-21
2022/03/08 13:39:29;;;;;;;4.93;3.45;;;;;;;17.21;46.73;96726.06;10285502;28;20082;-22
2022/03/08 13:44:30;;;;;;;7.63;4.00;;;;;;;17.23;46.43;96716.84;10280121;28;20090;-21
2022/03/08 13:49:31;;;;;;;5.00;3.92;;;;;;;17.24;46.30;96718.53;10273819;28;20039;-21
2022/03/08 13:54:41;;;;;;;6.27;3.93;;;;;;;17.20;47.12;96726.91;10269157;28;20023;-22
2022/03/08 13:59:41;;;;;;;11.55;4.68;;;;;;;17.20;47.53;96727.78;10276155;28;20294;-22
2022/03/08 14:04:42;;;;;;;11.35;4.50;;;;;;;17.18;47.37;96724.41;10275088;28;20042;-21
2022/03/08 14:09:57;;;;;;;10.17;4.80;;;;;;;17.20;48.76;96734.50;10274595;28;20117;-21
2022/03/08 14:15:05;;;;;;;7.03;4.53;;;;;;;17.18;48.69;96724.41;10283039;28;20285;-21
2022/03/08 14:20:18;;;;;;;4.70;3.83;;;;;;;17.16;47.49;96727.75;10270492;28;20034;-21
2022/03/08 14:25:18;;;;;;;8.27;4.13;;;;;;;17.16;47.13;96722.69;10283254;28;20030;-21
2022/03/08 14:30:27;;;;;;;4.67;4.07;;;;;;;17.16;46.82;96721.00;10278133;28;20046;-21
2022/03/08 14:35:28;;;;;;;7.88;3.47;;;;;;;17.17;46.80;96717.63;10275956;28;20414;-22
2022/03/08 14:40:40;;;;;;;5.53;3.65;;;;;;;17.15;46.88;96723.53;10276617;28;20038;-20
2022/03/08 14:45:40;;;;;;;6.30;4.43;;;;;;;17.16;47.09;96723.53;10282546;28;20141;-21
2022/03/08 14:50:44;;;;;;;5.00;3.50;;;;;;;17.16;47.03;96722.69;10268134;28;20418;-21
2022/03/08 14:55:44;;;;;;;4.22;3.38;;;;;;;17.18;46.99;96728.59;10271920;28;20035;-22
2022/03/08 15:00:45;;;;;;;4.90;3.87;;;;;;;17.16;47.38;96728.59;10275927;28;20046;-21
2022/03/08 15:05:45;;;;;;;6.20;3.70;;;;;;;17.19;46.73;96740.41;10269785;28;20291;-21
2022/03/08 15:10:46;;;;;;;3.70;3.20;;;;;;;17.16;47.11;96735.34;10284850;28;20031;-21
2022/03/08 15:15:46;;;;;;;4.90;4.00;;;;;;;17.18;48.59;96733.66;10273987;28;20094;-20
2022/03/08 15:20:46;;;;;;;5.10;4.00;;;;;;;17.18;48.93;96736.19;10277822;28;20039;-21
2022/03/08 15:25:47;;;;;;;4.55;3.78;;;;;;;17.18;48.72;96743.78;10280919;28;20031;-21
2022/03/08 15:30:48;;;;;;;3.55;3.22;;;;;;;17.16;47.92;96741.22;10280569;28;20030;-21
2022/03/08 15:35:50;;;;;;;4.28;3.70;;;;;;;17.17;47.59;96747.16;10275222;28;20470;-22
2022/03/08 15:40:50;;;;;;;3.88;3.42;;;;;;;17.15;47.25;96743.78;10289563;28;20078;-20
2022/03/08 15:45:53;;;;;;;3.28;2.95;;;;;;;17.13;46.85;96742.91;10285702;28;20092;-21
2022/03/08 15:50:54;;;;;;;4.28;3.30;;;;;;;17.13;47.46;96746.28;10281251;28;20571;-21
2022/03/08 15:55:54;;;;;;;4.00;3.60;;;;;;;17.13;47.66;96746.28;10282173;28;20030;-21
2022/03/08 16:00:55;;;;;;;3.60;3.30;;;;;;;17.16;46.83;96753.88;10286459;28;20034;-21
2022/03/08 16:05:56;;;;;;;3.97;3.58;;;;;;;17.16;47.66;96756.41;10280165;28;20530;-22
2022/03/08 16:10:56;;;;;;;14.63;9.80;;;;;;;16.90;40.86;96763.00;10282894;28;20034;-22
2022/03/08 16:15:57;;;;;;;18.58;10.55;;;;;;;16.77;40.94;96763.75;10288111;28;20638;-21
2022/03/08 16:20:59;;;;;;;11.75;7.13;;;;;;;16.98;46.55;96773.19;10285213;28;20559;-20
2022/03/08 16:26:00;;;;;;;7.65;6.55;;;;;;;17.07;47.84;96775.78;10286724;28;20041;-21
2022/03/08 16:31:00;;;;;;;8.93;5.83;;;;;;;17.12;47.83;96781.69;10277558;28;20584;-21
2022/03/08 16:36:01;;;;;;;10.10;6.60;;;;;;;17.11;46.83;96792.66;10273187;28;20700;-21
2022/03/08 16:41:01;;;;;;;8.00;5.10;;;;;;;17.12;46.62;96797.72;10293083;28;20037;-21
2022/03/08 16:46:02;;;;;;;8.23;4.88;;;;;;;17.15;46.96;96809.56;10282468;28;20290;-21
2022/03/08 16:51:03;;;;;;;10.65;5.32;;;;;;;17.17;47.41;96806.16;10279700;28;20454;-20
2022/03/08 16:56:04;;;;;;;8.57;4.65;;;;;;;17.16;47.04;96809.53;10279448;28;20026;-22
2022/03/08 17:01:04;;;;;;;8.95;5.00;;;;;;;17.18;47.79;96817.16;10286491;28;20035;-21
2022/03/08 17:06:05;;;;;;;5.47;3.50;;;;;;;17.18;46.79;96823.06;10275310;28;20085;-21
2022/03/08 17:11:05;;;;;;;27.63;10.50;;;;;;;17.07;42.59;96844.91;10279065;28;20037;-20
2022/03/08 17:16:06;;;;;;;8.17;5.43;;;;;;;17.05;45.83;96838.13;10281322;28;20089;-21
2022/03/08 17:21:07;;;;;;;7.43;4.82;;;;;;;17.14;46.32;96841.56;10284930;28;20039;-21
2022/03/08 17:26:07;;;;;;;10.18;4.82;;;;;;;17.18;46.76;96852.56;10260958;28;20106;-21
2022/03/08 17:31:08;;;;;;;18.10;6.47;;;;;;;17.20;48.00;96848.34;10281428;28;20084;-20
2022/03/08 17:36:09;;;;;;;10.13;5.83;;;;;;;17.21;48.56;96852.56;10270277;28;20038;-21
2022/03/08 17:41:12;;;;;;;7.55;4.82;;;;;;;17.22;48.01;96855.13;10279829;28;20031;-20
2022/03/08 17:46:13;;;;;;;9.05;4.63;;;;;;;17.20;46.56;96863.53;10280070;28;20496;-20
2022/03/08 17:51:14;;;;;;;6.85;4.05;;;;;;;17.19;46.72;96862.72;10274613;28;20046;-20
2022/03/08 17:56:15;;;;;;;8.02;3.83;;;;;;;17.20;46.62;96872.00;10269009;28;20381;-20
2022/03/08 18:01:15;;;;;;;7.93;3.92;;;;;;;17.22;46.56;96866.91;10269479;28;20510;-21
2022/03/08 18:06:16;;;;;;;4.27;3.73;;;;;;;17.25;46.97;96874.56;10264105;28;20530;-21
2022/03/08 18:11:16;;;;;;;9.40;3.80;;;;;;;17.22;46.88;96866.91;10279066;28;20298;-20
2022/03/08 18:16:16;;;;;;;10.20;4.10;;;;;;;17.26;47.24;96874.53;10277110;28;20033;-21
2022/03/08 18:21:17;;;;;;;6.60;3.80;;;;;;;17.26;46.81;96876.25;10274347;28;20395;-21
2022/03/08 18:26:18;;;;;;;7.40;4.75;;;;;;;17.28;47.03;96874.56;10271977;28;20178;-21
2022/03/08 18:31:18;;;;;;;5.38;3.53;;;;;;;17.28;46.59;96877.94;10280898;28;20043;-21
2022/03/08 18:36:19;;;;;;;4.47;3.88;;;;;;;17.29;46.80;96878.78;10273192;28;20496;-21
2022/03/08 18:41:23;;;;;;;7.10;4.05;;;;;;;17.30;48.43;96883.00;10275142;28;20510;-21
2022/03/08 18:46:24;;;;;;;10.40;3.55;;;;;;;17.28;47.63;96892.28;10277031;28;20049;-21
2022/03/08 18:51:24;;;;;;;6.60;3.80;;;;;;;17.24;46.43;96886.34;10271331;28;20049;-24
2022/03/08 18:56:25;;;;;;;7.63;3.60;;;;;;;17.29;46.85;96889.75;10270704;28;20433;-21
2022/03/08 19:01:26;;;;;;;6.93;4.30;;;;;;;17.25;47.56;96892.25;10274928;28;20415;-20
2022/03/08 19:06:28;;;;;;;8.77;3.72;;;;;;;17.28;46.74;96897.34;10268390;28;20505;-21
2022/03/08 19:11:30;;;;;;;11.05;4.07;;;;;;;17.27;47.06;96905.75;10275146;28;20408;-21
2022/03/08 19:16:30;;;;;;;8.00;3.67;;;;;;;17.27;46.98;96900.69;10270757;28;20069;-20
2022/03/08 19:21:32;;;;;;;4.60;4.03;;;;;;;17.26;47.07;96914.19;10277129;28;20046;-21
2022/03/08 19:26:32;;;;;;;5.13;3.92;;;;;;;17.11;46.81;96898.88;10282184;28;20302;-21
2022/03/08 19:31:32;;;;;;;7.47;3.58;;;;;;;17.26;46.64;96919.25;10273399;28;20038;-21
2022/03/08 19:36:33;;;;;;;5.20;4.07;;;;;;;17.26;47.65;96924.31;10266535;28;20077;-22
2022/03/08 19:41:33;;;;;;;6.35;3.35;;;;;;;17.29;47.59;96924.31;10272668;28;20027;-21
2022/03/08 19:46:34;;;;;;;4.53;3.30;;;;;;;17.29;47.18;96931.91;10277789;28;20039;-21
2022/03/08 19:51:34;;;;;;;9.85;3.90;;;;;;;17.27;49.82;96920.94;10265153;28;20043;-20
2022/03/08 19:56:35;;;;;;;5.70;3.53;;;;;;;17.29;49.25;96924.31;10269088;28;20851;-20
2022/03/08 20:01:36;;;;;;;8.17;3.77;;;;;;;17.29;48.19;96935.31;10271554;28;20050;-20
2022/03/08 20:06:38;;;;;;;4.60;3.45;;;;;;;17.30;46.93;96931.06;10276945;28;20043;-21
2022/03/08 20:11:38;;;;;;;6.82;3.25;;;;;;;17.23;47.66;96929.38;10277148;28;20038;-20
2022/03/08 20:16:39;;;;;;;4.90;3.07;;;;;;;17.28;47.31;96932.75;10281353;28;20042;-22
2022/03/08 20:21:39;;;;;;;4.47;3.22;;;;;;;17.28;47.16;96932.75;10285863;28;20035;-21
2022/03/08 20:26:40;;;;;;;3.53;3.20;;;;;;;17.28;46.57;96942.88;10288664;28;20038;-22
2022/03/08 20:31:40;;;;;;;6.87;3.33;;;;;;;17.23;46.99;96935.25;10273905;28;20407;-20
2022/03/08 20:36:41;;;;;;;3.65;3.35;;;;;;;17.27;47.31;96941.19;10281093;28;20034;-20
2022/03/08 20:41:42;;;;;;;4.65;3.05;;;;;;;17.27;47.32;96937.00;10264247;28;20574;-20
2022/03/08 20:46:43;;;;;;;5.32;2.72;;;;;;;17.20;46.69;96919.19;10272722;28;20038;-21
2022/03/08 20:51:44;;;;;;;3.95;3.13;;;;;;;17.25;46.96;96942.88;10273008;28;20039;-21
2022/03/08 20:56:46;;;;;;;8.63;3.13;;;;;;;17.18;48.49;96925.94;10276293;28;20059;-21
2022/03/08 21:01:47;;;;;;;8.13;3.33;;;;;;;17.26;48.99;96935.25;10282537;28;20396;-20
2022/03/08 21:06:48;;;;;;;7.07;3.17;;;;;;;17.21;48.04;96921.75;10282109;28;20384;-21
2022/03/08 21:11:51;;;;;;;6.78;3.85;;;;;;;17.29;46.66;96932.78;10275095;28;20054;-20
2022/03/08 21:16:52;;;;;;;4.03;3.20;;;;;;;17.27;47.08;96936.13;10272533;28;20038;-21
2022/03/08 21:21:54;;;;;;;5.35;3.42;;;;;;;17.27;46.88;96936.13;10290731;28;20030;-20
2022/03/08 21:26:54;;;;;;;3.92;2.88;;;;;;;17.28;46.63;96936.16;10283631;28;20117;-20
2022/03/08 21:31:56;;;;;;;6.75;3.50;;;;;;;17.28;46.73;96943.75;10285183;28;20034;-21
2022/03/08 21:36:56;;;;;;;5.07;3.05;;;;;;;17.27;47.18;96963.97;10282714;28;20053;-20
2022/03/08 21:41:57;;;;;;;6.23;3.30;;;;;;;17.27;46.78;96967.34;10271494;28;20118;-20
2022/03/08 21:46:57;;;;;;;6.17;3.27;;;;;;;17.25;47.81;96963.09;10279695;28;20049;-21
2022/03/08 21:51:58;;;;;;;4.80;2.60;;;;;;;17.23;46.68;96969.84;10280178;28;20294;-20
2022/03/08 21:56:58;;;;;;;5.75;3.47;;;;;;;17.21;47.51;96964.75;10280503;28;20503;-21
2022/03/08 22:01:59;;;;;;;6.15;3.08;;;;;;;17.18;47.45;96958.81;10271737;28;20030;-23
2022/03/08 22:06:59;;;;;;;5.87;3.30;;;;;;;17.20;49.35;96970.66;10277878;28;20570;-22
2022/03/08 22:12:00;;;;;;;4.90;3.15;;;;;;;17.19;48.88;96979.09;10281280;28;20370;-21
2022/03/08 22:17:00;;;;;;;4.50;2.90;;;;;;;17.19;47.30;96983.28;10269859;28;20053;-21
2022/03/08 22:22:01;;;;;;;3.53;2.75;;;;;;;17.15;47.14;96982.41;10283275;28;20035;-20
2022/03/08 22:27:02;;;;;;;5.28;3.45;;;;;;;17.19;46.95;96988.34;10280499;28;20517;-21
2022/03/08 22:32:03;;;;;;;9.10;3.38;;;;;;;17.18;46.78;96991.72;10275790;28;20053;-21
2022/03/08 22:37:04;;;;;;;3.58;2.70;;;;;;;17.18;47.15;96991.72;10274858;28;20018;-21
2022/03/08 22:42:05;;;;;;;5.22;2.67;;;;;;;17.13;47.38;96990.81;10272195;28;20089;-21
2022/03/08 22:47:06;;;;;;;5.63;3.00;;;;;;;17.19;46.86;96990.88;10281118;28;20039;-20
2022/03/08 22:52:06;;;;;;;5.28;2.60;;;;;;;17.17;47.25;96990.84;10278789;28;20031;-23
2022/03/08 22:57:07;;;;;;;5.00;3.03;;;;;;;17.19;47.24;96996.78;10278991;28;20033;-20
2022/03/08 23:02:08;;;;;;;4.40;2.90;;;;;;;17.20;47.20;97012.81;10272583;28;20153;-21
2022/03/08 23:07:09;;;;;;;6.00;2.67;;;;;;;17.18;47.14;97017.00;10273042;28;20646;-20
2022/03/08 23:12:10;;;;;;;7.45;3.72;;;;;;;17.21;49.19;97011.97;10279311;28;20035;-21
2022/03/08 23:17:10;;;;;;;4.93;2.22;;;;;;;17.15;49.35;97011.94;10276786;28;20134;-20